Cannon AFB, New Mexico
Current Conditions -  °F | °C
As of 8:58 AM on Tuesday 21 Oct 2014 (Local Time) from KCVS Reporting Station
Clear Clear  
Wind Chill: 61°   Ceiling: Unl
Heat Index: 61°   Visibility: 10mi
Dew Point: 53°   Wind: 2mph
Humidity: 75%   Direction: 90°E
Pressure: 30.17"   Gusts: NA
Location:  34.38°N, 103.31°W
Report Text: KCVS 211458Z AUTO 09002KT 10SM CLR 16/11 A3017 RMK AO2 SLP182 T01590114 52009 $
Loading
Personal Weather Stations






























Interactive Weather Map
Tropical Storm Tracking
New forecast layout! Learn more

10-Day Weather Forecast

Advertisements
Track Severe Weather on mobile